Time,TemperatureF,DewpointF,PressureIn,WindDirection,WindDirectionDegrees,WindSpeedMPH,WindSpeedGustMPH,Humidity,HourlyPrecipIn,Conditions,Clouds,dailyrainin,SoftwareType,DateUTC
2013-03-22 00:02:00,18.2,12.7,23.14,West,270,1.1,1.1,79,0.00,,,0.00,WUHU216HW,2013-03-22 06:02:00,
2013-03-22 00:07:00,18.4,13.1,23.14,West,270,0.4,1.1,80,0.00,,,0.00,WUHU216HW,2013-03-22 06:07:00,
2013-03-22 00:13:00,18.4,12.9,23.13,West,270,0.7,0.9,79,0.00,,,0.00,WUHU216HW,2013-03-22 06:13:00,
2013-03-22 00:18:00,18.4,12.9,23.13,WNW,293,1.1,1.1,79,0.00,,,0.00,WUHU216HW,2013-03-22 06:18:00,
2013-03-22 00:23:00,18.4,13.1,23.13,North,0,0.0,1.1,80,0.00,,,0.00,WUHU216HW,2013-03-22 06:23:00,
2013-03-22 00:28:00,18.5,13.3,23.13,North,0,0.0,1.1,80,0.00,,,0.00,WUHU216HW,2013-03-22 06:28:00,
2013-03-22 00:33:00,18.7,13.2,23.13,North,0,0.0,0.0,79,0.00,,,0.00,WUHU216HW,2013-03-22 06:33:00,
2013-03-22 00:38:00,18.5,12.7,23.13,West,270,0.4,1.1,78,0.00,,,0.00,WUHU216HW,2013-03-22 06:38:00,
2013-03-22 00:43:00,18.4,12.5,23.13,West,270,0.9,1.1,78,0.00,,,0.00,WUHU216HW,2013-03-22 06:43:00,
2013-03-22 00:48:00,18.4,12.5,23.13,West,270,0.7,1.1,78,0.00,,,0.00,WUHU216HW,2013-03-22 06:48:00,
2013-03-22 00:53:00,18.4,12.5,23.13,West,270,0.7,1.1,78,0.00,,,0.00,WUHU216HW,2013-03-22 06:53:00,
2013-03-22 01:00:00,18.0,12.8,23.13,West,270,1.1,1.1,80,0.00,,,0.00,WUHU216HW,2013-03-22 07:00:00,
2013-03-22 01:05:00,18.0,12.5,23.12,West,270,0.4,1.3,79,0.00,,,0.00,WUHU216HW,2013-03-22 07:05:00,
2013-03-22 01:10:00,18.0,12.5,23.12,West,270,0.9,1.3,79,0.00,,,0.00,WUHU216HW,2013-03-22 07:10:00,
2013-03-22 01:15:00,17.8,12.3,23.12,West,270,0.9,1.1,79,0.00,,,0.00,WUHU216HW,2013-03-22 07:15:00,
2013-03-22 01:20:00,17.8,12.3,23.12,West,270,0.4,1.1,79,0.00,,,0.00,WUHU216HW,2013-03-22 07:20:00,
2013-03-22 01:25:00,17.6,12.4,23.11,West,270,1.1,1.1,80,0.00,,,0.00,WUHU216HW,2013-03-22 07:25:00,
2013-03-22 01:30:00,17.6,12.4,23.11,West,270,1.1,1.1,80,0.00,,,0.00,WUHU216HW,2013-03-22 07:30:00,
2013-03-22 01:35:00,17.6,12.4,23.11,West,270,0.7,1.1,80,0.00,,,0.00,WUHU216HW,2013-03-22 07:35:00,
2013-03-22 01:40:00,17.6,12.4,23.11,West,270,1.1,1.1,80,0.00,,,0.00,WUHU216HW,2013-03-22 07:40:00,
2013-03-22 01:45:00,17.8,12.6,23.11,West,270,0.4,1.1,80,0.00,,,0.00,WUHU216HW,2013-03-22 07:45:00,
2013-03-22 01:50:00,18.0,12.8,23.11,West,270,0.4,1.1,80,0.00,,,0.00,WUHU216HW,2013-03-22 07:50:00,
2013-03-22 01:55:00,18.2,13.0,23.11,WSW,248,0.4,0.9,80,0.00,,,0.00,WUHU216HW,2013-03-22 07:55:00,
2013-03-22 02:01:00,18.4,13.7,23.11,West,270,0.7,0.9,82,0.00,,,0.00,WUHU216HW,2013-03-22 08:01:00,
2013-03-22 02:06:00,18.4,13.4,23.11,WSW,248,0.7,0.7,81,0.00,,,0.00,WUHU216HW,2013-03-22 08:06:00,
2013-03-22 02:11:00,18.5,13.6,23.11,WSW,248,0.2,0.9,81,0.00,,,0.00,WUHU216HW,2013-03-22 08:11:00,
2013-03-22 02:16:00,18.7,13.8,23.11,West,270,0.2,0.9,81,0.00,,,0.00,WUHU216HW,2013-03-22 08:16:00,
2013-03-22 02:21:00,18.9,14.0,23.11,SW,225,1.3,1.3,81,0.00,,,0.00,WUHU216HW,2013-03-22 08:21:00,
2013-03-22 02:27:00,19.1,14.1,23.11,West,270,0.7,1.3,81,0.00,,,0.00,WUHU216HW,2013-03-22 08:27:00,
2013-03-22 02:32:00,19.1,14.1,23.11,WSW,248,1.1,1.8,81,0.00,,,0.00,WUHU216HW,2013-03-22 08:32:00,
2013-03-22 02:37:00,19.3,14.6,23.11,WSW,248,0.7,1.8,82,0.00,,,0.00,WUHU216HW,2013-03-22 08:37:00,
2013-03-22 02:42:00,19.3,14.6,23.11,WSW,248,0.4,1.1,82,0.00,,,0.00,WUHU216HW,2013-03-22 08:42:00,
2013-03-22 02:47:00,19.4,14.8,23.11,WSW,248,0.2,0.9,82,0.00,,,0.00,WUHU216HW,2013-03-22 08:47:00,
2013-03-22 02:52:00,19.4,14.8,23.11,WSW,248,0.0,0.7,82,0.00,,,0.00,WUHU216HW,2013-03-22 08:52:00,
2013-03-22 02:57:00,19.4,14.8,23.11,WSW,248,0.7,0.7,82,0.00,,,0.00,WUHU216HW,2013-03-22 08:57:00,
2013-03-22 03:02:00,19.6,14.9,23.11,West,270,0.0,0.7,82,0.00,,,0.00,WUHU216HW,2013-03-22 09:02:00,
2013-03-22 03:07:00,19.6,14.9,23.11,SW,225,0.2,1.3,82,0.00,,,0.00,WUHU216HW,2013-03-22 09:07:00,
2013-03-22 03:12:00,19.8,15.1,23.11,WNW,293,0.4,1.3,82,0.00,,,0.00,WUHU216HW,2013-03-22 09:12:00,
2013-03-22 03:17:00,19.8,14.9,23.11,SW,225,3.8,3.8,81,0.00,,,0.00,WUHU216HW,2013-03-22 09:17:00,
2013-03-22 03:22:00,20.0,15.0,23.11,SSW,203,1.1,3.8,81,0.00,,,0.00,WUHU216HW,2013-03-22 09:22:00,
2013-03-22 03:27:00,20.2,14.9,23.10,NW,315,0.0,1.8,80,0.00,,,0.00,WUHU216HW,2013-03-22 09:27:00,
2013-03-22 03:32:00,20.2,14.9,23.11,West,270,0.4,1.8,80,0.00,,,0.00,WUHU216HW,2013-03-22 09:32:00,
2013-03-22 03:37:00,20.2,14.9,23.10,West,270,0.2,1.8,80,0.00,,,0.00,WUHU216HW,2013-03-22 09:37:00,
2013-03-22 03:42:00,20.2,14.9,23.10,WNW,293,0.4,1.8,80,0.00,,,0.00,WUHU216HW,2013-03-22 09:42:00,
2013-03-22 03:47:00,20.2,14.9,23.10,WNW,293,1.8,1.8,80,0.00,,,0.00,WUHU216HW,2013-03-22 09:47:00,
2013-03-22 03:52:00,20.3,15.1,23.10,West,270,0.2,1.8,80,0.00,,,0.00,WUHU216HW,2013-03-22 09:52:00,
2013-03-22 03:57:00,20.2,14.9,23.10,West,270,0.0,0.2,80,0.00,,,0.00,WUHU216HW,2013-03-22 09:57:00,
2013-03-22 04:03:00,20.2,14.9,23.09,West,270,0.0,0.4,80,0.00,,,0.00,WUHU216HW,2013-03-22 10:03:00,
2013-03-22 04:08:00,20.3,15.1,23.09,West,270,0.0,0.4,80,0.00,,,0.00,WUHU216HW,2013-03-22 10:08:00,
2013-03-22 04:13:00,20.3,15.1,23.09,SW,225,0.4,0.4,80,0.00,,,0.00,WUHU216HW,2013-03-22 10:13:00,
2013-03-22 04:18:00,20.2,14.9,23.08,SSW,203,0.0,0.4,80,0.00,,,0.00,WUHU216HW,2013-03-22 10:18:00,
2013-03-22 04:23:00,20.2,14.9,23.08,SW,225,0.0,0.9,80,0.00,,,0.00,WUHU216HW,2013-03-22 10:23:00,
2013-03-22 04:28:00,20.2,14.9,23.08,SW,225,0.2,0.9,80,0.00,,,0.00,WUHU216HW,2013-03-22 10:28:00,
2013-03-22 04:33:00,20.2,14.9,23.08,SW,225,0.0,0.4,80,0.00,,,0.00,WUHU216HW,2013-03-22 10:33:00,
2013-03-22 04:38:00,20.2,14.9,23.08,WNW,293,0.0,0.4,80,0.00,,,0.00,WUHU216HW,2013-03-22 10:38:00,
2013-03-22 04:43:00,20.0,14.8,23.08,West,270,0.0,0.4,80,0.00,,,0.00,WUHU216HW,2013-03-22 10:43:00,
2013-03-22 04:48:00,19.8,14.6,23.07,West,270,0.2,0.4,80,0.00,,,0.00,WUHU216HW,2013-03-22 10:48:00,
2013-03-22 04:53:00,19.8,14.6,23.07,West,270,0.0,0.4,80,0.00,,,0.00,WUHU216HW,2013-03-22 10:53:00,
2013-03-22 04:58:00,19.6,14.4,23.07,SW,225,0.4,0.9,80,0.00,,,0.00,WUHU216HW,2013-03-22 10:58:00,
2013-03-22 05:04:00,19.4,14.2,23.07,West,270,0.0,0.9,80,0.00,,,0.00,WUHU216HW,2013-03-22 11:04:00,
2013-03-22 05:09:00,19.4,14.2,23.07,West,270,0.0,0.4,80,0.00,,,0.00,WUHU216HW,2013-03-22 11:09:00,
2013-03-22 05:14:00,19.3,14.0,23.06,West,270,0.0,0.4,80,0.00,,,0.00,WUHU216HW,2013-03-22 11:14:00,
2013-03-22 05:19:00,19.3,14.0,23.06,West,270,0.0,0.2,80,0.00,,,0.00,WUHU216HW,2013-03-22 11:19:00,
2013-03-22 05:24:00,19.3,14.0,23.07,SW,225,0.0,0.2,80,0.00,,,0.00,WUHU216HW,2013-03-22 11:24:00,
2013-03-22 05:29:00,19.1,13.9,23.07,SW,225,0.0,0.2,80,0.00,,,0.00,WUHU216HW,2013-03-22 11:29:00,
2013-03-22 05:34:00,19.1,13.9,23.07,SW,225,0.0,0.4,80,0.00,,,0.00,WUHU216HW,2013-03-22 11:34:00,
2013-03-22 05:39:00,19.1,13.9,23.06,SW,225,0.0,0.4,80,0.00,,,0.00,WUHU216HW,2013-03-22 11:39:00,
2013-03-22 05:44:00,19.1,13.9,23.06,SW,225,0.0,0.0,80,0.00,,,0.00,WUHU216HW,2013-03-22 11:44:00,
2013-03-22 05:49:00,19.1,13.9,23.07,WNW,293,0.0,0.4,80,0.00,,,0.00,WUHU216HW,2013-03-22 11:49:00,
2013-03-22 05:54:00,19.1,13.9,23.06,WNW,293,0.0,0.4,80,0.00,,,0.00,WUHU216HW,2013-03-22 11:54:00,
2013-03-22 05:59:00,19.1,13.9,23.06,WNW,293,0.0,0.0,80,0.00,,,0.00,WUHU216HW,2013-03-22 11:59:00,
2013-03-22 06:04:00,19.1,13.9,23.06,WNW,293,0.0,0.0,80,0.00,,,0.00,WUHU216HW,2013-03-22 12:04:00,
2013-03-22 06:09:00,19.1,14.1,23.06,WNW,293,0.4,0.4,81,0.00,,,0.00,WUHU216HW,2013-03-22 12:09:00,
2013-03-22 06:14:00,19.1,14.1,23.06,West,270,0.0,0.4,81,0.00,,,0.00,WUHU216HW,2013-03-22 12:14:00,
2013-03-22 06:19:00,19.1,14.1,23.06,SW,225,0.4,0.4,81,0.00,,,0.00,WUHU216HW,2013-03-22 12:19:00,
2013-03-22 06:24:00,19.1,14.1,23.06,SW,225,0.0,0.4,81,0.00,,,0.00,WUHU216HW,2013-03-22 12:24:00,
2013-03-22 06:29:00,19.1,14.1,23.06,SW,225,0.0,0.0,81,0.00,,,0.00,WUHU216HW,2013-03-22 12:29:00,
2013-03-22 06:34:00,19.1,14.4,23.05,SW,225,0.0,0.0,82,0.00,,,0.00,WUHU216HW,2013-03-22 12:34:00,
2013-03-22 06:39:00,19.1,14.4,23.05,SW,225,0.0,0.0,82,0.00,,,0.00,WUHU216HW,2013-03-22 12:39:00,
2013-03-22 06:44:00,19.1,14.4,23.06,SW,225,0.0,0.0,82,0.00,,,0.00,WUHU216HW,2013-03-22 12:44:00,
2013-03-22 06:49:00,19.1,14.4,23.06,SW,225,0.0,0.0,82,0.00,,,0.00,WUHU216HW,2013-03-22 12:49:00,
2013-03-22 06:54:00,19.1,14.4,23.06,SW,225,0.0,0.0,82,0.00,,,0.00,WUHU216HW,2013-03-22 12:54:00,
2013-03-22 07:00:00,19.1,14.4,23.05,SW,225,0.0,0.0,82,0.00,,,0.00,WUHU216HW,2013-03-22 13:00:00,
2013-03-22 07:05:00,19.1,14.4,23.05,SW,225,0.0,0.0,82,0.00,,,0.00,WUHU216HW,2013-03-22 13:05:00,
2013-03-22 07:10:00,18.9,14.2,23.05,SW,225,0.0,0.0,82,0.00,,,0.00,WUHU216HW,2013-03-22 13:10:00,
2013-03-22 07:15:00,18.9,14.2,23.05,SW,225,0.0,0.0,82,0.00,,,0.00,WUHU216HW,2013-03-22 13:15:00,
2013-03-22 07:20:00,18.7,14.0,23.05,SW,225,0.0,0.0,82,0.00,,,0.00,WUHU216HW,2013-03-22 13:20:00,
2013-03-22 07:25:00,18.7,14.0,23.05,SW,225,0.0,0.0,82,0.00,,,0.00,WUHU216HW,2013-03-22 13:25:00,
2013-03-22 07:30:00,18.7,14.0,23.05,SW,225,0.0,0.0,82,0.00,,,0.00,WUHU216HW,2013-03-22 13:30:00,
2013-03-22 07:35:00,18.7,14.0,23.05,SW,225,0.0,0.0,82,0.00,,,0.00,WUHU216HW,2013-03-22 13:35:00,
2013-03-22 07:40:00,18.5,13.9,23.05,SW,225,0.0,0.0,82,0.00,,,0.00,WUHU216HW,2013-03-22 13:40:00,
2013-03-22 07:45:00,18.7,14.3,23.05,SW,225,0.0,0.0,83,0.00,,,0.00,WUHU216HW,2013-03-22 13:45:00,
2013-03-22 07:50:00,18.5,14.1,23.05,WSW,248,0.2,0.2,83,0.00,,,0.00,WUHU216HW,2013-03-22 13:50:00,
2013-03-22 07:55:00,18.5,13.9,23.05,WNW,293,0.0,0.2,82,0.00,,,0.00,WUHU216HW,2013-03-22 13:55:00,
2013-03-22 08:01:00,18.7,14.0,23.05,WNW,293,0.0,0.0,82,0.00,,,0.00,WUHU216HW,2013-03-22 14:01:00,
2013-03-22 08:06:00,18.9,14.2,23.05,WNW,293,0.0,0.0,82,0.00,,,0.00,WUHU216HW,2013-03-22 14:06:00,
2013-03-22 08:11:00,18.9,14.2,23.04,WNW,293,0.0,0.0,82,0.00,,,0.00,WUHU216HW,2013-03-22 14:11:00,
2013-03-22 08:16:00,19.1,14.7,23.05,NNW,338,0.0,0.0,83,0.00,,,0.00,WUHU216HW,2013-03-22 14:16:00,
2013-03-22 08:21:00,19.1,14.7,23.05,ENE,68,0.0,0.2,83,0.00,,,0.00,WUHU216HW,2013-03-22 14:21:00,
2013-03-22 08:26:00,19.3,14.9,23.05,ENE,68,0.2,0.2,83,0.00,,,0.00,WUHU216HW,2013-03-22 14:26:00,
2013-03-22 08:31:00,19.4,15.0,23.05,ENE,68,0.0,0.2,83,0.00,,,0.00,WUHU216HW,2013-03-22 14:31:00,
2013-03-22 08:36:00,19.4,15.0,23.05,ENE,68,0.0,0.0,83,0.00,,,0.00,WUHU216HW,2013-03-22 14:36:00,
2013-03-22 08:42:00,19.4,15.0,23.05,ENE,68,0.0,0.4,83,0.00,,,0.00,WUHU216HW,2013-03-22 14:42:00,
2013-03-22 08:47:00,19.4,15.0,23.05,SSW,203,0.0,0.4,83,0.00,,,0.00,WUHU216HW,2013-03-22 14:47:00,
2013-03-22 08:52:00,19.4,15.0,23.05,SE,135,0.0,0.2,83,0.00,,,0.00,WUHU216HW,2013-03-22 14:52:00,
2013-03-22 08:57:00,19.4,15.0,23.05,SE,135,0.2,0.2,83,0.00,,,0.00,WUHU216HW,2013-03-22 14:57:00,
2013-03-22 09:02:00,19.4,15.0,23.05,East,90,0.4,0.4,83,0.00,,,0.00,WUHU216HW,2013-03-22 15:02:00,
2013-03-22 09:07:00,19.4,15.3,23.05,ENE,68,0.7,1.1,84,0.00,,,0.00,WUHU216HW,2013-03-22 15:07:00,
2013-03-22 09:12:00,19.4,15.3,23.05,ENE,68,0.2,1.1,84,0.00,,,0.00,WUHU216HW,2013-03-22 15:12:00,
2013-03-22 09:17:00,19.4,15.3,23.05,ENE,68,0.4,0.9,84,0.00,,,0.00,WUHU216HW,2013-03-22 15:17:00,
2013-03-22 09:22:00,19.6,15.5,23.05,ENE,68,1.1,1.1,84,0.00,,,0.00,WUHU216HW,2013-03-22 15:22:00,
2013-03-22 09:27:00,19.6,15.5,23.05,East,90,0.2,1.1,84,0.00,,,0.00,WUHU216HW,2013-03-22 15:27:00,
2013-03-22 09:32:00,19.6,15.5,23.05,East,90,0.2,0.9,84,0.00,,,0.00,WUHU216HW,2013-03-22 15:32:00,
2013-03-22 09:37:00,19.6,15.5,23.05,East,90,0.0,0.4,84,0.00,,,0.00,WUHU216HW,2013-03-22 15:37:00,
2013-03-22 09:42:00,19.8,15.9,23.05,East,90,0.0,0.4,85,0.00,,,0.00,WUHU216HW,2013-03-22 15:42:00,
2013-03-22 09:47:00,19.8,15.7,23.05,East,90,0.0,0.4,84,0.00,,,0.00,WUHU216HW,2013-03-22 15:47:00,
2013-03-22 09:53:00,19.8,15.7,23.05,East,90,0.0,0.4,84,0.00,,,0.00,WUHU216HW,2013-03-22 15:53:00,
2013-03-22 09:58:00,19.8,15.7,23.05,East,90,0.0,0.0,84,0.00,,,0.00,WUHU216HW,2013-03-22 15:58:00,
2013-03-22 10:03:00,19.8,15.7,23.05,West,270,0.7,0.7,84,0.00,,,0.00,WUHU216HW,2013-03-22 16:03:00,
2013-03-22 10:08:00,19.8,15.7,23.05,West,270,0.7,0.7,84,0.00,,,0.00,WUHU216HW,2013-03-22 16:08:00,
2013-03-22 10:30:00,20.5,16.7,23.05,WNW,293,1.1,1.1,85,0.00,,,0.00,WUHU216HW,2013-03-22 16:30:00,
2013-03-22 10:35:00,20.5,16.7,23.05,WNW,293,1.1,1.1,85,0.00,,,0.00,WUHU216HW,2013-03-22 16:35:00,
2013-03-22 11:00:00,20.7,16.6,23.05,SW,225,0.7,0.7,84,0.00,,,0.00,WUHU216HW,2013-03-22 17:00:00,
2013-03-22 11:05:00,20.7,16.6,23.05,SW,225,0.7,0.7,84,0.00,,,0.00,WUHU216HW,2013-03-22 17:05:00,
2013-03-22 11:30:00,20.9,16.7,23.05,WSW,248,0.9,0.9,84,0.00,,,0.00,WUHU216HW,2013-03-22 17:30:00,
2013-03-22 11:35:00,20.9,16.7,23.05,WSW,248,0.9,0.9,84,0.00,,,0.00,WUHU216HW,2013-03-22 17:35:00,
2013-03-22 12:00:00,21.2,17.4,23.05,NW,315,4.3,4.3,85,0.00,,,0.00,WUHU216HW,2013-03-22 18:00:00,
2013-03-22 12:05:00,21.4,17.6,23.05,West,270,2.5,5.4,85,0.00,,,0.00,WUHU216HW,2013-03-22 18:05:00,
2013-03-22 12:10:00,21.4,17.0,23.05,SW,225,3.1,5.4,83,0.00,,,0.00,WUHU216HW,2013-03-22 18:10:00,
2013-03-22 12:15:00,21.6,17.5,23.05,West,270,4.0,5.4,84,0.00,,,0.00,WUHU216HW,2013-03-22 18:15:00,
2013-03-22 12:20:00,21.6,17.2,23.05,NNE,23,0.4,4.7,83,0.00,,,0.00,WUHU216HW,2013-03-22 18:20:00,
2013-03-22 12:25:00,21.4,16.7,23.05,West,270,3.4,4.7,82,0.00,,,0.00,WUHU216HW,2013-03-22 18:25:00,
2013-03-22 12:30:00,21.2,16.6,23.05,NNW,338,0.2,6.3,82,0.00,,,0.00,WUHU216HW,2013-03-22 18:30:00,
2013-03-22 12:35:00,21.2,16.6,23.05,WSW,248,5.4,6.3,82,0.00,,,0.00,WUHU216HW,2013-03-22 18:35:00,
2013-03-22 12:40:00,21.2,16.8,23.05,West,270,3.1,5.4,83,0.00,,,0.00,WUHU216HW,2013-03-22 18:40:00,
2013-03-22 12:45:00,21.6,17.2,23.05,WSW,248,1.3,4.3,83,0.00,,,0.00,WUHU216HW,2013-03-22 18:45:00,
2013-03-22 12:50:00,21.2,16.8,23.05,WNW,293,2.2,4.3,83,0.00,,,0.00,WUHU216HW,2013-03-22 18:50:00,
2013-03-22 12:56:00,21.2,17.1,23.06,WNW,293,3.8,4.3,84,0.00,,,0.00,WUHU216HW,2013-03-22 18:56:00,
2013-03-22 13:01:00,21.1,16.7,23.06,West,270,1.3,4.5,83,0.00,,,0.00,WUHU216HW,2013-03-22 19:01:00,
2013-03-22 13:06:00,20.9,16.2,23.06,SW,225,5.1,5.1,82,0.00,,,0.00,WUHU216HW,2013-03-22 19:06:00,
2013-03-22 13:11:00,20.9,16.2,23.06,SW,225,2.5,5.1,82,0.00,,,0.00,WUHU216HW,2013-03-22 19:11:00,
2013-03-22 13:16:00,21.2,16.3,23.06,West,270,4.9,4.9,81,0.00,,,0.00,WUHU216HW,2013-03-22 19:16:00,
2013-03-22 13:21:00,21.1,15.8,23.06,West,270,2.5,4.9,80,0.00,,,0.00,WUHU216HW,2013-03-22 19:21:00,
2013-03-22 13:26:00,20.5,15.8,23.06,West,270,1.6,5.1,82,0.00,,,0.00,WUHU216HW,2013-03-22 19:26:00,
2013-03-22 13:32:00,20.3,15.7,23.06,WNW,293,2.5,5.1,82,0.00,,,0.00,WUHU216HW,2013-03-22 19:32:00,
2013-03-22 13:37:00,19.8,15.1,23.05,North,0,0.2,2.5,82,0.00,,,0.00,WUHU216HW,2013-03-22 19:37:00,
2013-03-22 13:42:00,19.6,15.2,23.06,WSW,248,3.8,8.5,83,0.00,,,0.00,WUHU216HW,2013-03-22 19:42:00,
2013-03-22 13:47:00,19.4,15.3,23.06,West,270,2.0,8.5,84,0.00,,,0.00,WUHU216HW,2013-03-22 19:47:00,
2013-03-22 13:52:00,19.4,15.3,23.06,West,270,4.0,4.9,84,0.00,,,0.00,WUHU216HW,2013-03-22 19:52:00,
2013-03-22 13:57:00,19.6,15.5,23.06,West,270,5.4,5.4,84,0.00,,,0.00,WUHU216HW,2013-03-22 19:57:00,
2013-03-22 14:02:00,19.8,15.7,23.05,SW,225,2.9,5.4,84,0.00,,,0.00,WUHU216HW,2013-03-22 20:02:00,
2013-03-22 14:07:00,20.2,16.0,23.05,West,270,2.5,5.4,84,0.00,,,0.00,WUHU216HW,2013-03-22 20:07:00,
2013-03-22 14:12:00,20.5,16.1,23.05,West,270,4.9,5.4,83,0.00,,,0.00,WUHU216HW,2013-03-22 20:12:00,
2013-03-22 14:17:00,20.9,16.2,23.05,WNW,293,0.2,4.9,82,0.00,,,0.00,WUHU216HW,2013-03-22 20:17:00,
2013-03-22 14:22:00,20.9,15.4,23.04,WNW,293,4.0,5.4,79,0.00,,,0.00,WUHU216HW,2013-03-22 20:22:00,
2013-03-22 14:27:00,20.9,15.4,23.04,NNW,338,6.0,6.0,79,0.00,,,0.00,WUHU216HW,2013-03-22 20:27:00,
2013-03-22 14:33:00,20.7,15.5,23.04,WNW,293,0.4,6.0,80,0.00,,,0.00,WUHU216HW,2013-03-22 20:33:00,
2013-03-22 14:38:00,20.7,15.5,23.04,West,270,6.3,6.3,80,0.00,,,0.00,WUHU216HW,2013-03-22 20:38:00,
2013-03-22 14:43:00,20.5,15.0,23.04,WNW,293,4.3,6.3,79,0.00,,,0.00,WUHU216HW,2013-03-22 20:43:00,
2013-03-22 14:48:00,20.2,14.7,23.04,West,270,3.4,6.3,79,0.00,,,0.00,WUHU216HW,2013-03-22 20:48:00,
2013-03-22 14:53:00,20.5,14.7,23.03,WSW,248,4.7,4.7,78,0.00,,,0.00,WUHU216HW,2013-03-22 20:53:00,
2013-03-22 14:58:00,20.9,14.4,23.03,SSW,203,4.9,6.3,76,0.00,,,0.00,WUHU216HW,2013-03-22 20:58:00,
2013-03-22 15:03:00,21.2,14.8,23.03,West,270,0.9,6.3,76,0.00,,,0.00,WUHU216HW,2013-03-22 21:03:00,
2013-03-22 15:08:00,21.4,14.7,23.03,NNE,23,2.9,4.0,75,0.00,,,0.00,WUHU216HW,2013-03-22 21:08:00,
2013-03-22 15:13:00,21.2,14.2,23.03,NW,315,2.7,4.0,74,0.00,,,0.00,WUHU216HW,2013-03-22 21:13:00,
2013-03-22 15:18:00,20.9,13.5,23.03,WNW,293,0.7,6.0,73,0.00,,,0.00,WUHU216HW,2013-03-22 21:18:00,
2013-03-22 15:23:00,20.7,13.7,23.04,West,270,4.7,7.8,74,0.00,,,0.00,WUHU216HW,2013-03-22 21:23:00,
2013-03-22 15:28:00,20.5,13.8,23.04,WSW,248,0.0,7.8,75,0.00,,,0.00,WUHU216HW,2013-03-22 21:28:00,
2013-03-22 15:33:00,21.1,14.3,23.04,East,90,0.7,6.3,75,0.00,,,0.00,WUHU216HW,2013-03-22 21:33:00,
2013-03-22 15:38:00,21.2,15.1,23.04,SW,225,0.0,1.1,77,0.00,,,0.00,WUHU216HW,2013-03-22 21:38:00,
2013-03-22 15:43:00,22.0,15.9,23.04,WSW,248,0.7,1.6,77,0.00,,,0.00,WUHU216HW,2013-03-22 21:43:00,
2013-03-22 15:48:00,22.1,16.0,23.05,West,270,5.8,5.8,77,0.00,,,0.00,WUHU216HW,2013-03-22 21:48:00,
2013-03-22 15:54:00,22.0,15.5,23.05,West,270,1.8,5.8,76,0.00,,,0.00,WUHU216HW,2013-03-22 21:54:00,
2013-03-22 15:59:00,22.0,15.2,23.05,WNW,293,2.5,4.7,75,0.00,,,0.00,WUHU216HW,2013-03-22 21:59:00,
2013-03-22 16:04:00,21.8,14.4,23.05,WSW,248,6.9,6.9,73,0.00,,,0.00,WUHU216HW,2013-03-22 22:04:00,
2013-03-22 16:09:00,21.4,14.0,23.05,WNW,293,8.5,8.5,73,0.00,,,0.00,WUHU216HW,2013-03-22 22:09:00,
2013-03-22 16:14:00,21.1,13.7,23.05,SSW,203,3.8,8.5,73,0.00,,,0.00,WUHU216HW,2013-03-22 22:14:00,
2013-03-22 16:19:00,21.2,14.2,23.05,West,270,2.7,7.4,74,0.00,,,0.00,WUHU216HW,2013-03-22 22:19:00,
2013-03-22 16:24:00,21.2,13.9,23.05,WNW,293,2.9,5.1,73,0.00,,,0.00,WUHU216HW,2013-03-22 22:24:00,
2013-03-22 16:29:00,21.2,13.9,23.06,WNW,293,4.9,5.1,73,0.00,,,0.00,WUHU216HW,2013-03-22 22:29:00,
2013-03-22 16:34:00,21.1,13.4,23.05,SSW,203,5.4,5.4,72,0.00,,,0.00,WUHU216HW,2013-03-22 22:34:00,
2013-03-22 16:39:00,21.2,13.6,23.05,North,0,0.2,5.4,72,0.00,,,0.00,WUHU216HW,2013-03-22 22:39:00,
2013-03-22 16:44:00,21.1,13.4,23.05,WNW,293,0.2,3.6,72,0.00,,,0.00,WUHU216HW,2013-03-22 22:44:00,
2013-03-22 16:46:00,21.1,13.4,23.06,WSW,248,4.0,4.0,72,0.00,,,0.00,WUHU216HW,2013-03-22 22:46:00,
2013-03-22 16:49:00,21.1,13.4,23.06,WSW,248,4.0,4.0,72,0.00,,,0.00,WUHU216HW,2013-03-22 22:49:00,
2013-03-22 16:54:00,21.1,13.4,23.06,WSW,248,4.0,4.0,72,0.00,,,0.00,WUHU216HW,2013-03-22 22:54:00,
2013-03-22 17:00:00,20.5,13.1,23.06,SSE,158,2.2,2.2,73,0.00,,,0.00,WUHU216HW,2013-03-22 23:00:00,
2013-03-22 17:05:00,20.3,13.3,23.06,West,270,2.0,3.4,74,0.00,,,0.00,WUHU216HW,2013-03-22 23:05:00,
2013-03-22 17:10:00,20.5,13.5,23.06,West,270,0.9,3.4,74,0.00,,,0.00,WUHU216HW,2013-03-22 23:10:00,
2013-03-22 17:15:00,20.5,13.5,23.06,North,0,0.0,2.7,74,0.00,,,0.00,WUHU216HW,2013-03-22 23:15:00,
2013-03-22 17:20:00,20.5,13.8,23.06,North,0,0.0,0.9,75,0.00,,,0.00,WUHU216HW,2013-03-22 23:20:00,
2013-03-22 17:25:00,20.7,14.0,23.06,North,0,0.0,0.0,75,0.00,,,0.00,WUHU216HW,2013-03-22 23:25:00,
2013-03-22 17:30:00,20.7,14.0,23.06,SSW,203,3.8,3.8,75,0.00,,,0.00,WUHU216HW,2013-03-22 23:30:00,
2013-03-22 17:35:00,20.5,13.8,23.06,NNE,23,0.0,3.8,75,0.00,,,0.00,WUHU216HW,2013-03-22 23:35:00,
2013-03-22 17:40:00,20.3,13.6,23.06,NW,315,0.0,3.6,75,0.00,,,0.00,WUHU216HW,2013-03-22 23:40:00,
2013-03-22 17:45:00,20.3,13.6,23.06,WNW,293,0.4,1.3,75,0.00,,,0.00,WUHU216HW,2013-03-22 23:45:00,
2013-03-22 17:50:00,20.3,13.6,23.06,West,270,0.4,3.4,75,0.00,,,0.00,WUHU216HW,2013-03-22 23:50:00,
2013-03-22 17:55:00,20.3,12.7,23.06,SSW,203,4.7,4.7,72,0.00,,,0.00,WUHU216HW,2013-03-22 23:55:00,
2013-03-22 18:00:00,20.3,12.3,23.06,SSW,203,2.7,4.7,71,0.00,,,0.00,WUHU216HW,2013-03-23 00:00:00,
2013-03-22 18:05:00,20.2,12.2,23.06,ESE,113,0.2,3.6,71,0.00,,,0.00,WUHU216HW,2013-03-23 00:05:00,
2013-03-22 18:10:00,20.2,12.2,23.06,South,180,0.4,4.0,71,0.00,,,0.00,WUHU216HW,2013-03-23 00:10:00,
2013-03-22 18:16:00,20.0,12.3,23.07,NW,315,3.4,4.0,72,0.00,,,0.00,WUHU216HW,2013-03-23 00:16:00,
2013-03-22 18:21:00,19.8,11.8,23.07,WNW,293,0.2,4.0,71,0.00,,,0.00,WUHU216HW,2013-03-23 00:21:00,
2013-03-22 18:26:00,19.8,11.5,23.07,NNW,338,4.0,4.0,70,0.00,,,0.00,WUHU216HW,2013-03-23 00:26:00,
2013-03-22 18:31:00,19.8,11.8,23.07,WNW,293,0.9,4.0,71,0.00,,,0.00,WUHU216HW,2013-03-23 00:31:00,
2013-03-22 18:36:00,19.8,12.2,23.07,WSW,248,1.8,4.0,72,0.00,,,0.00,WUHU216HW,2013-03-23 00:36:00,
2013-03-22 18:41:00,19.8,12.2,23.07,North,0,0.0,4.0,72,0.00,,,0.00,WUHU216HW,2013-03-23 00:41:00,
2013-03-22 18:46:00,19.8,12.2,23.07,North,0,0.0,1.8,72,0.00,,,0.00,WUHU216HW,2013-03-23 00:46:00,
2013-03-22 18:51:00,19.8,12.2,23.07,West,270,0.4,0.4,72,0.00,,,0.00,WUHU216HW,2013-03-23 00:51:00,
2013-03-22 18:56:00,19.6,12.0,23.07,WNW,293,1.3,1.3,72,0.00,,,0.00,WUHU216HW,2013-03-23 00:56:00,
2013-03-22 19:01:00,19.4,11.4,23.07,SW,225,2.9,2.9,71,0.00,,,0.00,WUHU216HW,2013-03-23 01:01:00,
2013-03-22 19:06:00,19.3,11.4,23.07,SSE,158,0.0,2.9,71,0.00,,,0.00,WUHU216HW,2013-03-23 01:06:00,
2013-03-22 19:11:00,19.1,11.2,23.08,NNW,338,0.9,2.5,71,0.00,,,0.00,WUHU216HW,2013-03-23 01:11:00,
2013-03-22 19:16:00,19.1,11.4,23.08,WNW,293,0.2,2.5,72,0.00,,,0.00,WUHU216HW,2013-03-23 01:16:00,
2013-03-22 19:21:00,18.9,11.3,23.08,SW,225,0.2,1.8,72,0.00,,,0.00,WUHU216HW,2013-03-23 01:21:00,
2013-03-22 19:27:00,18.9,11.3,23.08,SW,225,0.2,1.8,72,0.00,,,0.00,WUHU216HW,2013-03-23 01:27:00,
2013-03-22 19:49:00,18.5,11.0,23.08,North,0,0.0,0.0,72,0.00,,,0.00,WUHU216HW,2013-03-23 01:49:00,
2013-03-22 19:54:00,18.5,11.0,23.08,North,0,0.0,0.0,72,0.00,,,0.00,WUHU216HW,2013-03-23 01:54:00,
2013-03-22 20:00:00,18.9,11.3,23.08,North,0,0.0,0.0,72,0.00,,,0.00,WUHU216HW,2013-03-23 02:00:00,
2013-03-22 20:05:00,18.7,10.8,23.08,WSW,248,1.1,4.0,71,0.00,,,0.00,WUHU216HW,2013-03-23 02:05:00,
2013-03-22 20:10:00,18.4,10.2,23.08,WSW,248,0.9,4.0,70,0.00,,,0.00,WUHU216HW,2013-03-23 02:10:00,
2013-03-22 20:15:00,18.4,10.4,23.09,SSE,158,0.2,3.1,71,0.00,,,0.00,WUHU216HW,2013-03-23 02:15:00,
2013-03-22 20:20:00,18.2,10.4,23.09,West,270,0.4,2.0,71,0.00,,,0.00,WUHU216HW,2013-03-23 02:20:00,
2013-03-22 20:25:00,18.0,10.2,23.09,ESE,113,0.2,2.0,71,0.00,,,0.00,WUHU216HW,2013-03-23 02:25:00,
2013-03-22 20:30:00,18.0,10.2,23.09,WSW,248,0.0,0.4,71,0.00,,,0.00,WUHU216HW,2013-03-23 02:30:00,
2013-03-22 20:35:00,17.8,10.0,23.09,WNW,293,3.4,6.3,71,0.00,,,0.00,WUHU216HW,2013-03-23 02:35:00,
2013-03-22 20:40:00,17.8,10.0,23.09,SSW,203,0.7,6.3,71,0.00,,,0.00,WUHU216HW,2013-03-23 02:40:00,
2013-03-22 20:45:00,17.6,9.8,23.10,WSW,248,0.7,4.0,71,0.00,,,0.00,WUHU216HW,2013-03-23 02:45:00,
2013-03-22 20:50:00,17.6,9.8,23.09,WNW,293,2.5,2.5,71,0.00,,,0.00,WUHU216HW,2013-03-23 02:50:00,
2013-03-22 20:55:00,17.5,9.6,23.10,South,180,0.0,2.5,71,0.00,,,0.00,WUHU216HW,2013-03-23 02:55:00,
2013-03-22 21:00:00,17.3,9.7,23.10,WNW,293,0.0,1.6,72,0.00,,,0.00,WUHU216HW,2013-03-23 03:00:00,
2013-03-22 21:05:00,17.5,9.9,23.10,North,0,0.0,0.7,72,0.00,,,0.00,WUHU216HW,2013-03-23 03:05:00,
2013-03-22 21:10:00,17.6,10.1,23.10,North,0,0.0,0.0,72,0.00,,,0.00,WUHU216HW,2013-03-23 03:10:00,
2013-03-22 21:15:00,17.6,10.5,23.10,North,0,0.0,0.0,73,0.00,,,0.00,WUHU216HW,2013-03-23 03:15:00,
2013-03-22 21:20:00,17.6,10.5,23.10,WNW,293,2.5,2.5,73,0.00,,,0.00,WUHU216HW,2013-03-23 03:20:00,
2013-03-22 21:25:00,17.6,10.5,23.10,WNW,293,2.5,2.5,73,0.00,,,0.00,WUHU216HW,2013-03-23 03:25:00,
2013-03-22 21:46:00,17.1,10.2,23.10,NW,315,0.0,0.0,74,0.00,,,0.00,WUHU216HW,2013-03-23 03:46:00,
2013-03-22 21:51:00,17.1,10.2,23.10,WNW,293,0.0,0.4,74,0.00,,,0.00,WUHU216HW,2013-03-23 03:51:00,
2013-03-22 21:56:00,16.9,10.0,23.10,WNW,293,0.0,0.4,74,0.00,,,0.00,WUHU216HW,2013-03-23 03:56:00,
2013-03-22 22:00:00,16.9,10.0,23.10,WNW,293,0.4,0.4,74,0.00,,,0.00,WUHU216HW,2013-03-23 04:00:00,
2013-03-22 22:01:00,16.9,10.0,23.10,WNW,293,0.9,0.9,74,0.00,,,0.00,WUHU216HW,2013-03-23 04:01:00,
2013-03-22 22:07:00,16.9,10.3,23.10,West,270,0.0,1.1,75,0.00,,,0.00,WUHU216HW,2013-03-23 04:07:00,
2013-03-22 22:12:00,16.9,10.9,23.10,SSW,203,1.1,5.4,77,0.00,,,0.00,WUHU216HW,2013-03-23 04:12:00,
2013-03-22 22:17:00,16.9,11.2,23.10,South,180,2.5,5.4,78,0.00,,,0.00,WUHU216HW,2013-03-23 04:17:00,
2013-03-22 22:22:00,17.1,11.6,23.11,WNW,293,1.3,3.4,79,0.00,,,0.00,WUHU216HW,2013-03-23 04:22:00,
2013-03-22 22:27:00,17.1,12.0,23.11,West,270,3.1,3.1,80,0.00,,,0.00,WUHU216HW,2013-03-23 04:27:00,
2013-03-22 22:32:00,16.9,11.8,23.11,SW,225,4.0,4.0,80,0.00,,,0.00,WUHU216HW,2013-03-23 04:32:00,
2013-03-22 22:37:00,16.9,11.8,23.11,North,0,0.0,4.0,80,0.00,,,0.00,WUHU216HW,2013-03-23 04:37:00,
2013-03-22 22:42:00,16.9,12.1,23.11,North,0,0.0,4.0,81,0.00,,,0.00,WUHU216HW,2013-03-23 04:42:00,
2013-03-22 22:47:00,16.9,12.1,23.11,SSW,203,3.4,4.0,81,0.00,,,0.00,WUHU216HW,2013-03-23 04:47:00,
2013-03-22 22:52:00,16.7,11.9,23.11,SW,225,0.4,5.4,81,0.00,,,0.00,WUHU216HW,2013-03-23 04:52:00,
2013-03-22 22:57:00,16.6,11.7,23.11,SW,225,0.0,5.4,81,0.00,,,0.00,WUHU216HW,2013-03-23 04:57:00,
2013-03-22 23:03:00,16.4,11.5,23.11,WNW,293,0.9,2.2,81,0.00,,,0.00,WUHU216HW,2013-03-23 05:03:00,
2013-03-22 23:08:00,16.4,11.5,23.11,WNW,293,0.9,2.2,81,0.00,,,0.00,WUHU216HW,2013-03-23 05:08:00,
2013-03-22 23:33:00,16.2,11.3,23.11,WSW,248,0.2,0.2,81,0.00,,,0.00,WUHU216HW,2013-03-23 05:33:00,
2013-03-22 23:38:00,16.4,11.5,23.12,West,270,0.4,0.9,81,0.00,,,0.00,WUHU216HW,2013-03-23 05:38:00,
2013-03-22 23:43:00,16.6,11.7,23.12,WNW,293,0.0,0.9,81,0.00,,,0.00,WUHU216HW,2013-03-23 05:43:00,
2013-03-22 23:48:00,16.6,12.0,23.12,WNW,293,0.4,0.4,82,0.00,,,0.00,WUHU216HW,2013-03-23 05:48:00,
2013-03-22 23:53:00,16.6,12.0,23.11,SSW,203,0.4,0.4,82,0.00,,,0.00,WUHU216HW,2013-03-23 05:53:00,
2013-03-22 23:58:00,16.4,11.5,23.11,WNW,293,0.4,0.7,81,0.00,,,0.00,WUHU216HW,2013-03-23 05:58:00,